Benicassim, Spain
Current Conditions -  °F | °C
As of 9:00 PM on Sunday 25 Jan 2015 (Local Time) from LEBT Reporting Station
Clear Clear  
Wind Chill: 54°   Ceiling: Unl
Heat Index: 54°   Visibility: 6mi
Dew Point: 12°   Wind: 12mph
Humidity: 19%   Direction: 340°NNW
Pressure: 30.21"   Gusts: 24mph
Location:  40.05°N, 0.07°E
Report Text: LEBT 252000Z AUTO 34010G21KT 270V030 CAVOK 12/M11 Q1023
Loading
Personal Weather Stations






























Interactive Weather Map New forecast layout! Learn more

10-Day Weather Forecast

Advertisements
Track Severe Weather on mobile